Time;durP1;ratioP1;P1;durP2;ratioP2;P2;SDS_P1;SDS_P2;PMS_P1;PMS_P2;Temp;Humidity;BMP_temperature;BMP_pressure;BME280_temperature;BME280_humidity;BME280_pressure;Samples;Min_cycle;Max_cycle;Signal;HPM_P1;HPM_P2
2022/03/09 00:00:18;;;;;;;5.05;2.47;;;;;;;18.50;17.64;99825.31;5106389;28;20028;-71
2022/03/09 00:02:44;;;;;;;4.78;3.05;;;;;;;18.52;17.61;99836.72;5105875;28;20031;-72
2022/03/09 00:05:10;;;;;;;3.95;2.40;;;;;;;18.52;17.72;99836.72;5111063;28;20038;-70
2022/03/09 00:07:35;;;;;;;4.45;2.67;;;;;;;18.54;18.13;99829.34;5108991;28;20126;-72
2022/03/09 00:10:01;;;;;;;3.58;2.58;;;;;;;18.56;17.64;99830.03;5112364;28;20055;-73
2022/03/09 00:12:27;;;;;;;4.03;2.70;;;;;;;18.57;17.89;99834.38;5110842;28;20063;-73
2022/03/09 00:14:52;;;;;;;4.25;2.20;;;;;;;18.60;17.97;99827.84;5111679;28;20034;-72
2022/03/09 00:17:18;;;;;;;4.57;2.55;;;;;;;18.61;17.84;99829.53;5106692;28;20059;-73
2022/03/09 00:19:43;;;;;;;5.68;2.47;;;;;;;18.64;17.96;99841.75;5114998;28;20027;-72
2022/03/09 00:22:09;;;;;;;5.35;2.03;;;;;;;18.63;17.86;99832.03;5115566;28;20502;-72
2022/03/09 00:24:34;;;;;;;3.40;2.30;;;;;;;18.64;17.94;99842.59;5116636;28;20078;-72
2022/03/09 00:27:00;;;;;;;3.42;2.22;;;;;;;18.62;17.95;99841.94;5112640;28;20039;-72
2022/03/09 00:29:46;;;;;;;2.85;2.17;;;;;;;18.61;18.10;99846.44;5109431;28;20035;-73
2022/03/09 00:32:13;;;;;;;4.43;2.42;;;;;;;18.64;17.92;99844.44;5115110;28;20062;-73
2022/03/09 00:34:39;;;;;;;4.88;2.28;;;;;;;18.66;17.59;99842.44;5104495;28;20225;-73
2022/03/09 00:37:05;;;;;;;3.55;2.20;;;;;;;18.64;17.75;99831.03;5096553;28;20518;-75
2022/03/09 00:39:30;;;;;;;5.70;2.30;;;;;;;18.66;17.76;99831.72;5106694;28;20036;-74
2022/03/09 00:41:56;;;;;;;3.28;2.22;;;;;;;18.65;17.82;99840.75;5106266;28;20452;-74
2022/03/09 00:44:21;;;;;;;5.03;2.50;;;;;;;18.67;17.75;99850.31;5113180;28;20031;-73
2022/03/09 00:46:47;;;;;;;4.03;2.25;;;;;;;18.69;17.67;99850.13;5109977;28;20131;-72
2022/03/09 00:49:12;;;;;;;4.13;2.42;;;;;;;18.69;17.62;99842.91;5115771;28;20501;-70
2022/03/09 00:51:38;;;;;;;3.22;2.10;;;;;;;18.70;17.64;99849.97;5114498;27;20035;-71
2022/03/09 00:54:03;;;;;;;4.03;2.63;;;;;;;18.70;17.45;99849.97;5113795;28;20486;-71
2022/03/09 00:56:29;;;;;;;3.38;1.90;;;;;;;18.67;17.74;99847.63;5109785;27;20119;-70
2022/03/09 00:58:54;;;;;;;4.90;2.67;;;;;;;18.61;17.78;99841.06;5111248;28;20100;-70
2022/03/09 01:01:20;;;;;;;3.22;2.28;;;;;;;18.63;17.56;99850.78;5113560;28;20089;-70
2022/03/09 01:03:45;;;;;;;3.63;2.20;;;;;;;18.59;17.90;99858.34;5114104;28;20114;-71
2022/03/09 01:06:11;;;;;;;2.80;2.05;;;;;;;18.57;17.85;99858.50;5096073;28;20489;-70
2022/03/09 01:08:36;;;;;;;2.85;2.03;;;;;;;18.53;17.84;99850.97;5113663;28;20039;-71
2022/03/09 01:11:03;;;;;;;2.55;2.08;;;;;;;18.49;17.55;99861.16;5109910;28;20130;-71
2022/03/09 01:13:28;;;;;;;4.35;2.72;;;;;;;18.48;17.26;99862.16;5112151;28;20478;-70
2022/03/09 01:15:54;;;;;;;2.85;1.90;;;;;;;18.45;17.62;99862.50;5112775;28;20085;-71
2022/03/09 01:18:20;;;;;;;8.00;2.08;;;;;;;18.42;17.53;99857.47;5112979;28;20047;-71
2022/03/09 01:20:46;;;;;;;8.25;2.80;;;;;;;18.42;17.51;99862.84;5113484;28;20031;-71
2022/03/09 01:23:11;;;;;;;2.83;2.22;;;;;;;18.41;17.41;99867.34;5113406;28;20114;-71
2022/03/09 01:25:37;;;;;;;5.15;2.45;;;;;;;18.40;17.41;99871.00;5112736;28;20110;-71
2022/03/09 01:28:02;;;;;;;3.42;2.33;;;;;;;18.38;17.49;99870.34;5113115;28;20468;-70
2022/03/09 01:30:28;;;;;;;4.13;2.38;;;;;;;18.36;17.07;99868.84;5113062;28;20088;-70
2022/03/09 01:32:53;;;;;;;5.07;2.60;;;;;;;18.36;17.19;99874.19;5113244;28;20058;-70
2022/03/09 01:35:19;;;;;;;3.13;2.20;;;;;;;18.32;17.31;99868.31;5112677;28;20039;-70
2022/03/09 01:37:48;;;;;;;3.05;1.98;;;;;;;18.30;17.34;99863.16;5108844;27;20031;-70
2022/03/09 01:40:14;;;;;;;2.35;1.77;;;;;;;18.30;17.72;99876.53;5094333;28;20399;-70
2022/03/09 01:42:42;;;;;;;4.97;2.45;;;;;;;18.29;17.67;99877.53;5110630;28;20031;-70
2022/03/09 01:45:10;;;;;;;4.60;2.38;;;;;;;18.28;17.59;99880.38;5112549;28;20088;-70
2022/03/09 01:47:36;;;;;;;3.33;2.13;;;;;;;18.26;17.52;99874.31;5113051;28;20019;-70
2022/03/09 01:50:04;;;;;;;3.40;2.28;;;;;;;18.26;17.60;99885.03;5112425;28;20031;-70
2022/03/09 01:52:30;;;;;;;3.00;2.20;;;;;;;18.23;17.55;99890.75;5112015;28;20027;-70
2022/03/09 01:54:55;;;;;;;4.35;2.20;;;;;;;18.23;17.27;99888.88;5112456;28;20108;-70
2022/03/09 01:57:22;;;;;;;3.63;2.40;;;;;;;18.23;17.13;99896.09;5112449;28;20031;-70
2022/03/09 01:59:52;;;;;;;3.30;2.15;;;;;;;18.21;17.34;99898.09;5110785;28;20074;-71
2022/03/09 02:02:18;;;;;;;2.88;1.92;;;;;;;18.17;17.54;99892.19;5111715;28;20035;-70
2022/03/09 02:04:45;;;;;;;3.55;2.20;;;;;;;18.17;17.40;99900.25;5112515;28;20080;-70
2022/03/09 02:07:11;;;;;;;4.22;2.45;;;;;;;18.14;17.30;99889.88;5093086;28;20036;-70
2022/03/09 02:09:41;;;;;;;3.50;2.38;;;;;;;18.11;17.51;99893.69;5093367;28;20032;-70
2022/03/09 02:12:08;;;;;;;3.15;2.20;;;;;;;18.09;17.23;99900.22;5109185;28;20035;-70
2022/03/09 02:14:37;;;;;;;4.65;2.28;;;;;;;18.08;17.19;99901.22;5111917;28;20099;-70
2022/03/09 02:17:07;;;;;;;3.90;2.70;;;;;;;18.07;17.49;99897.72;5110604;28;20039;-70
2022/03/09 02:19:34;;;;;;;4.63;2.97;;;;;;;18.07;17.49;99907.56;5112621;28;20466;-70
2022/03/09 02:22:19;;;;;;;3.45;2.50;;;;;;;18.04;17.60;99910.56;5111584;28;20122;-70
2022/03/09 02:24:50;;;;;;;4.00;2.50;;;;;;;18.03;17.18;99912.41;5101129;28;20039;-70
2022/03/09 02:27:16;;;;;;;5.05;2.03;;;;;;;18.04;17.16;99914.09;5111903;28;20035;-70
2022/03/09 02:29:42;;;;;;;3.30;2.20;;;;;;;18.04;17.33;99913.25;5111997;28;20092;-70
2022/03/09 02:32:08;;;;;;;4.00;2.47;;;;;;;18.01;17.18;99914.41;5111716;28;20039;-70
2022/03/09 02:34:34;;;;;;;2.90;2.05;;;;;;;17.99;17.38;99922.63;5104628;28;20075;-70
2022/03/09 02:37:00;;;;;;;2.97;2.13;;;;;;;18.02;17.47;99928.63;5103418;28;20832;-69
2022/03/09 02:39:25;;;;;;;3.95;2.33;;;;;;;18.00;17.19;99928.78;5111667;28;20036;-69
2022/03/09 02:41:51;;;;;;;3.55;2.28;;;;;;;17.92;17.64;99932.22;5110927;28;20027;-69
2022/03/09 02:44:17;;;;;;;5.05;2.83;;;;;;;17.88;17.42;99930.88;5097111;28;20406;-69
2022/03/09 02:46:43;;;;;;;5.53;2.50;;;;;;;17.86;17.65;99932.88;5111420;28;20115;-69
2022/03/09 02:49:08;;;;;;;3.30;2.22;;;;;;;17.87;17.29;99937.22;5111391;28;20122;-68
2022/03/09 02:51:34;;;;;;;4.20;2.47;;;;;;;17.88;17.35;99941.56;5111041;28;20050;-69
2022/03/09 02:53:59;;;;;;;3.30;2.35;;;;;;;17.88;17.48;99946.94;5111594;27;20027;-69
2022/03/09 02:56:25;;;;;;;4.50;2.50;;;;;;;17.87;17.30;99942.56;5110976;28;20027;-68
2022/03/09 02:58:51;;;;;;;2.88;2.17;;;;;;;17.88;17.33;99944.25;5111578;28;20118;-69
2022/03/09 03:01:16;;;;;;;5.45;2.42;;;;;;;17.88;17.48;99946.09;5111291;28;20490;-69
2022/03/09 03:03:43;;;;;;;4.38;2.38;;;;;;;17.85;17.26;99941.91;5111197;28;20533;-69
2022/03/09 03:06:10;;;;;;;3.53;2.70;;;;;;;17.86;17.28;99943.59;5111112;28;20071;-69
2022/03/09 03:08:37;;;;;;;5.82;2.45;;;;;;;17.84;17.17;99934.88;5110845;28;20037;-69
2022/03/09 03:11:04;;;;;;;3.35;2.03;;;;;;;17.82;17.18;99935.03;5109559;28;20038;-69
2022/03/09 03:13:29;;;;;;;4.60;2.30;;;;;;;17.82;17.36;99945.72;5108517;28;20118;-69
2022/03/09 03:15:55;;;;;;;3.53;2.40;;;;;;;17.81;17.35;99946.72;5110090;28;20110;-69
2022/03/09 03:18:21;;;;;;;4.60;2.70;;;;;;;17.82;17.38;99953.75;5110480;28;20056;-70
2022/03/09 03:20:46;;;;;;;3.60;2.15;;;;;;;17.83;17.36;99951.94;5102065;28;20043;-70
2022/03/09 03:23:12;;;;;;;4.85;2.67;;;;;;;17.78;17.57;99954.22;5110303;28;20036;-69
2022/03/09 03:25:38;;;;;;;3.47;2.22;;;;;;;17.75;17.36;99958.06;5104690;28;20104;-70
2022/03/09 03:28:04;;;;;;;5.57;2.60;;;;;;;17.78;17.82;99956.91;5090421;28;20032;-69
2022/03/09 03:30:29;;;;;;;3.60;2.53;;;;;;;17.79;17.87;99963.94;5091799;28;20043;-69
2022/03/09 03:32:55;;;;;;;6.10;2.58;;;;;;;17.77;18.10;99960.59;5105299;28;20032;-70
2022/03/09 03:35:20;;;;;;;3.22;2.30;;;;;;;17.76;18.23;99970.47;5110912;28;20026;-70
2022/03/09 03:37:46;;;;;;;4.28;2.17;;;;;;;17.78;17.70;99964.94;5110457;28;20623;-70
2022/03/09 03:40:11;;;;;;;4.40;2.50;;;;;;;17.78;17.55;99967.63;5107495;28;20500;-70
2022/03/09 03:42:37;;;;;;;3.83;2.33;;;;;;;17.76;17.41;99962.44;5110342;28;20414;-70
2022/03/09 03:45:03;;;;;;;5.25;2.70;;;;;;;17.75;17.24;99962.56;5110755;28;20099;-70
2022/03/09 03:47:29;;;;;;;3.17;2.15;;;;;;;17.77;17.17;99972.16;5111069;28;20380;-70
2022/03/09 03:49:55;;;;;;;7.15;2.78;;;;;;;17.77;17.33;99971.28;5110896;28;20110;-70
2022/03/09 03:52:20;;;;;;;3.88;2.35;;;;;;;17.78;17.06;99970.28;5110627;28;20039;-70
2022/03/09 03:54:46;;;;;;;3.75;2.13;;;;;;;17.77;17.25;99969.47;5115098;27;20027;-70
2022/03/09 03:57:11;;;;;;;4.75;2.53;;;;;;;17.77;17.46;99971.28;5114557;28;20055;-70
2022/03/09 03:59:37;;;;;;;4.20;2.35;;;;;;;17.75;17.51;99971.47;5114928;28;20565;-70
2022/03/09 04:02:02;;;;;;;4.32;2.60;;;;;;;17.77;17.58;99976.63;5114431;28;20031;-70
2022/03/09 04:04:28;;;;;;;3.20;2.40;;;;;;;17.76;16.98;99977.63;5115079;28;20208;-70
2022/03/09 04:06:53;;;;;;;4.78;2.45;;;;;;;17.76;17.31;99986.53;5113454;28;20047;-70
2022/03/09 04:09:19;;;;;;;3.35;2.17;;;;;;;17.72;17.20;99979.78;5114828;28;20040;-69
2022/03/09 04:11:44;;;;;;;6.43;2.30;;;;;;;17.70;17.37;99973.75;5114598;28;20077;-70
2022/03/09 04:14:10;;;;;;;6.80;3.20;;;;;;;17.73;17.16;99986.81;5114203;28;20037;-70
2022/03/09 04:16:35;;;;;;;6.30;3.10;;;;;;;17.73;16.90;99983.28;5113950;28;20486;-70
2022/03/09 04:19:01;;;;;;;5.07;2.92;;;;;;;17.73;17.38;99992.19;5114212;28;20075;-69
2022/03/09 04:21:26;;;;;;;3.53;2.58;;;;;;;17.73;17.20;99991.31;5099750;27;20047;-70
2022/03/09 04:23:52;;;;;;;3.95;2.80;;;;;;;17.74;17.71;100003.72;5095207;28;20340;-70
2022/03/09 04:26:17;;;;;;;5.95;3.00;;;;;;;17.75;17.63;100000.91;5111255;28;20077;-70
2022/03/09 04:28:43;;;;;;;5.70;3.03;;;;;;;17.73;17.66;100002.88;5114182;28;20478;-69
2022/03/09 04:31:08;;;;;;;3.53;2.40;;;;;;;17.73;17.24;100013.59;5113216;28;20044;-71
2022/03/09 04:33:34;;;;;;;3.95;2.60;;;;;;;17.73;17.50;100010.91;5095190;28;20042;-70
2022/03/09 04:35:59;;;;;;;3.55;2.35;;;;;;;17.75;17.55;100016.09;5094998;28;20039;-70
2022/03/09 04:38:25;;;;;;;4.88;2.95;;;;;;;17.75;17.35;100021.44;5095379;28;20107;-70
2022/03/09 04:40:51;;;;;;;4.10;2.83;;;;;;;17.74;17.64;100019.78;5095560;28;20035;-70
2022/03/09 04:43:16;;;;;;;4.18;2.50;;;;;;;17.74;17.50;100030.47;5113818;28;20118;-68
2022/03/09 04:45:42;;;;;;;5.45;2.90;;;;;;;17.73;17.26;100028.78;5113721;28;20086;-70
2022/03/09 04:48:07;;;;;;;4.00;2.65;;;;;;;17.74;17.32;100030.47;5114117;28;20457;-70
2022/03/09 04:50:33;;;;;;;6.13;2.88;;;;;;;17.74;17.32;100030.47;5113783;28;20037;-70
2022/03/09 04:52:58;;;;;;;4.93;2.78;;;;;;;17.74;17.47;100049.22;5114016;28;20040;-70
2022/03/09 04:55:24;;;;;;;5.50;2.50;;;;;;;17.77;17.36;100040.88;5113361;28;20023;-70
2022/03/09 04:57:49;;;;;;;4.05;2.80;;;;;;;17.80;17.43;100040.56;5113905;28;20043;-70
2022/03/09 05:00:15;;;;;;;3.72;2.30;;;;;;;17.84;17.42;100047.31;5097124;28;20035;-70
2022/03/09 05:02:41;;;;;;;5.40;2.70;;;;;;;17.82;17.12;100041.25;5112842;28;20032;-70
2022/03/09 05:05:07;;;;;;;4.75;2.92;;;;;;;17.78;17.05;100042.56;5112923;28;20027;-70
2022/03/09 05:07:32;;;;;;;3.80;2.80;;;;;;;17.77;16.66;100046.22;5112797;28;20050;-70
2022/03/09 05:09:59;;;;;;;5.13;3.15;;;;;;;17.78;16.86;100037.22;5112784;28;20092;-70
2022/03/09 05:12:24;;;;;;;4.07;2.85;;;;;;;17.72;16.84;100036.00;5114396;28;20401;-70
2022/03/09 05:14:50;;;;;;;5.88;2.20;;;;;;;17.78;16.76;100050.59;5114991;28;20031;-71
2022/03/09 05:17:15;;;;;;;4.03;2.80;;;;;;;17.77;16.70;100036.38;5114589;28;20039;-71
2022/03/09 05:19:41;;;;;;;4.47;2.70;;;;;;;17.81;16.62;100047.59;5114908;28;20044;-70
2022/03/09 05:22:06;;;;;;;4.50;3.20;;;;;;;17.83;16.63;100048.28;5115038;28;20107;-72
2022/03/09 05:24:32;;;;;;;5.10;2.92;;;;;;;17.85;16.68;100054.34;5115021;28;20057;-71
2022/03/09 05:26:57;;;;;;;5.18;3.00;;;;;;;17.85;16.55;100057.84;5114143;28;20070;-69
2022/03/09 05:29:23;;;;;;;4.78;3.15;;;;;;;17.88;16.68;100055.84;5114791;27;20028;-71
2022/03/09 05:31:48;;;;;;;5.47;3.00;;;;;;;17.89;16.50;100066.41;5115022;28;20039;-69
2022/03/09 05:34:14;;;;;;;4.22;2.90;;;;;;;17.90;16.54;100065.41;5115137;28;20118;-69
2022/03/09 05:36:41;;;;;;;4.68;2.85;;;;;;;17.93;16.61;100075.81;5113955;28;20406;-71
2022/03/09 05:39:07;;;;;;;4.90;2.67;;;;;;;17.95;16.72;100076.50;5114352;28;20063;-71
2022/03/09 05:41:33;;;;;;;4.90;2.92;;;;;;;17.99;16.68;100077.03;5113694;28;20142;-70
2022/03/09 05:43:59;;;;;;;4.40;2.90;;;;;;;17.98;16.91;100070.00;5114464;28;20043;-69
2022/03/09 05:46:25;;;;;;;5.57;3.45;;;;;;;18.02;16.78;100065.16;5114835;28;20054;-69
2022/03/09 05:48:50;;;;;;;4.47;2.90;;;;;;;18.00;16.90;100070.69;5114756;28;20036;-69
2022/03/09 05:51:16;;;;;;;6.80;3.38;;;;;;;17.98;16.76;100065.50;5114758;28;20032;-69
2022/03/09 05:53:41;;;;;;;5.15;3.15;;;;;;;18.00;16.75;100076.06;5114000;28;20122;-69
2022/03/09 05:56:07;;;;;;;4.50;3.45;;;;;;;18.02;16.70;100081.25;5114120;28;20027;-69
2022/03/09 05:58:32;;;;;;;5.50;3.03;;;;;;;18.01;16.92;100074.22;5114247;28;20063;-71
2022/03/09 06:00:58;;;;;;;5.05;3.08;;;;;;;18.03;17.03;100081.09;5113747;28;20039;-71
2022/03/09 06:03:24;;;;;;;5.00;3.67;;;;;;;18.06;17.08;100088.84;5114291;28;20047;-71
2022/03/09 06:05:49;;;;;;;5.90;3.60;;;;;;;18.07;16.67;100084.31;5113883;27;20028;-71
2022/03/09 06:08:15;;;;;;;7.22;3.65;;;;;;;18.10;16.89;100094.69;5113536;27;20428;-70
2022/03/09 06:10:40;;;;;;;5.90;3.20;;;;;;;18.05;16.99;100079.13;5114019;28;20436;-70
2022/03/09 06:13:06;;;;;;;5.00;3.50;;;;;;;18.10;16.73;100098.22;5113465;28;20043;-70
2022/03/09 06:15:32;;;;;;;6.38;3.90;;;;;;;18.13;16.92;100095.22;5113962;28;20092;-71
2022/03/09 06:17:57;;;;;;;5.50;4.00;;;;;;;18.15;16.82;100108.47;5112247;28;20142;-71
2022/03/09 06:20:25;;;;;;;6.35;3.55;;;;;;;18.15;17.02;100117.34;5114087;28;20032;-71
2022/03/09 06:22:52;;;;;;;6.32;3.92;;;;;;;18.17;17.35;100101.09;5113245;28;20039;-71
2022/03/09 06:25:17;;;;;;;11.48;3.65;;;;;;;18.19;17.15;100104.47;5113876;28;20084;-71
2022/03/09 06:27:45;;;;;;;8.18;4.30;;;;;;;18.20;16.90;100108.84;5112809;28;20479;-70
2022/03/09 06:30:12;;;;;;;6.65;4.13;;;;;;;18.22;17.19;100114.88;5114126;28;20467;-70
2022/03/09 06:32:38;;;;;;;7.22;3.42;;;;;;;18.22;17.02;100109.50;5113031;28;20035;-71
2022/03/09 06:35:05;;;;;;;6.18;3.28;;;;;;;18.23;17.45;100115.72;5113755;28;20043;-70
2022/03/09 06:37:31;;;;;;;6.63;3.85;;;;;;;18.19;17.34;100107.16;5113414;28;20085;-70
2022/03/09 06:39:58;;;;;;;5.78;3.63;;;;;;;18.21;17.15;100115.88;5113326;28;20035;-70
2022/03/09 06:42:25;;;;;;;6.20;3.47;;;;;;;18.23;17.06;100124.59;5112385;28;20039;-70
2022/03/09 06:44:51;;;;;;;5.50;3.30;;;;;;;18.22;16.84;100122.91;5113946;28;20118;-70
2022/03/09 06:47:16;;;;;;;5.15;3.65;;;;;;;18.22;16.80;100120.22;5112726;28;20160;-70
2022/03/09 06:49:42;;;;;;;4.53;3.03;;;;;;;18.23;16.74;100124.59;5113600;28;20426;-70
2022/03/09 06:52:08;;;;;;;5.20;3.50;;;;;;;18.24;17.02;100131.63;5113200;28;20038;-70
2022/03/09 06:54:33;;;;;;;5.03;3.70;;;;;;;18.26;16.95;100121.59;5113538;28;20040;-70
2022/03/09 06:56:59;;;;;;;5.32;3.58;;;;;;;18.28;17.07;100118.75;5112605;28;20565;-69
2022/03/09 06:59:25;;;;;;;5.22;3.50;;;;;;;18.27;16.71;100123.28;5113051;28;20039;-69
2022/03/09 07:01:50;;;;;;;6.28;3.42;;;;;;;18.28;16.81;100126.78;5112400;28;20142;-69
2022/03/09 07:04:16;;;;;;;6.10;3.22;;;;;;;18.27;16.48;100123.28;5113403;28;20031;-69
2022/03/09 07:06:41;;;;;;;6.05;3.97;;;;;;;18.29;16.66;100126.66;5113317;28;20032;-70
2022/03/09 07:09:07;;;;;;;5.47;2.75;;;;;;;18.30;16.71;100122.13;5113410;28;20158;-70
2022/03/09 07:11:32;;;;;;;5.22;3.40;;;;;;;18.31;16.84;100126.50;5100461;28;20423;-70
2022/03/09 07:13:58;;;;;;;4.53;3.35;;;;;;;18.29;16.47;100123.97;5112207;28;20050;-69
2022/03/09 07:16:23;;;;;;;4.68;3.45;;;;;;;18.28;16.49;100126.78;5112658;28;20035;-69
2022/03/09 07:18:49;;;;;;;5.32;2.88;;;;;;;18.28;16.37;100118.75;5112858;28;20060;-69
2022/03/09 07:21:15;;;;;;;4.20;2.60;;;;;;;18.30;16.48;100124.81;5112696;28;20451;-68
2022/03/09 07:23:40;;;;;;;4.35;2.88;;;;;;;18.30;16.30;100131.03;5113137;28;20036;-70
2022/03/09 07:26:06;;;;;;;5.68;2.90;;;;;;;18.30;16.39;100124.81;5112289;28;20035;-70
2022/03/09 07:28:31;;;;;;;5.30;3.33;;;;;;;18.30;16.32;100130.16;5112890;28;20043;-69
2022/03/09 07:30:58;;;;;;;4.43;3.03;;;;;;;18.30;16.36;100122.97;5112793;28;20035;-68
2022/03/09 07:33:23;;;;;;;5.53;3.53;;;;;;;18.29;16.27;100128.47;5113207;28;20036;-69
2022/03/09 07:35:49;;;;;;;6.20;2.88;;;;;;;18.27;16.20;100128.66;5112900;28;20371;-68
2022/03/09 07:38:14;;;;;;;5.00;2.58;;;;;;;18.27;16.16;100131.31;5112526;28;20114;-69
2022/03/09 07:40:41;;;;;;;4.68;2.92;;;;;;;18.23;15.98;100131.81;5112206;28;20063;-69
2022/03/09 07:43:06;;;;;;;7.45;2.47;;;;;;;18.22;16.16;100130.13;5112735;28;20104;-69
2022/03/09 07:45:32;;;;;;;3.83;3.05;;;;;;;18.22;16.11;100138.16;5112644;28;20478;-69
2022/03/09 07:47:58;;;;;;;6.82;2.92;;;;;;;18.23;16.05;100135.31;5112473;28;20042;-69
2022/03/09 07:50:24;;;;;;;6.93;3.35;;;;;;;18.26;15.85;100139.50;5112979;28;20035;-68
2022/03/09 07:52:49;;;;;;;5.22;3.78;;;;;;;18.26;16.28;100136.81;5112600;28;20513;-69
2022/03/09 07:55:15;;;;;;;5.18;3.63;;;;;;;18.27;16.06;100141.19;5112436;28;20406;-69
2022/03/09 07:57:41;;;;;;;3.97;3.35;;;;;;;18.25;15.96;100140.50;5111280;28;20031;-69
2022/03/09 08:00:08;;;;;;;5.20;3.33;;;;;;;18.25;16.22;100140.50;5112297;28;20042;-68
2022/03/09 08:02:33;;;;;;;5.28;3.33;;;;;;;18.24;16.10;100142.34;5112473;28;20050;-69
2022/03/09 08:04:59;;;;;;;5.53;3.30;;;;;;;18.26;15.90;100142.19;5112263;28;20498;-70
2022/03/09 08:07:24;;;;;;;5.50;3.20;;;;;;;18.26;16.11;100136.81;5112159;28;20116;-68
2022/03/09 08:09:50;;;;;;;6.72;4.05;;;;;;;18.25;15.84;100135.13;5112786;28;20039;-69
2022/03/09 08:12:15;;;;;;;6.05;3.28;;;;;;;18.26;16.15;100137.69;5112807;28;20050;-68
2022/03/09 08:14:41;;;;;;;3.70;2.90;;;;;;;18.27;15.77;100142.03;5112199;28;20099;-69
2022/03/09 08:17:06;;;;;;;5.47;2.92;;;;;;;18.24;16.07;100145.03;5111956;28;20071;-69
2022/03/09 08:19:33;;;;;;;5.00;3.42;;;;;;;18.24;15.79;100144.16;5112690;28;20499;-70
2022/03/09 08:21:59;;;;;;;4.55;2.72;;;;;;;18.22;16.04;100140.84;5112325;28;20032;-70
2022/03/09 08:24:27;;;;;;;3.92;2.90;;;;;;;18.22;15.59;100147.03;5112418;28;20027;-70
2022/03/09 08:26:52;;;;;;;5.85;2.75;;;;;;;18.20;15.93;100140.97;5112218;28;20035;-69
2022/03/09 08:29:18;;;;;;;5.00;3.20;;;;;;;18.18;16.03;100145.63;5112649;28;20170;-70
2022/03/09 08:31:43;;;;;;;6.53;3.10;;;;;;;18.17;15.85;100146.63;5111682;28;20486;-69
2022/03/09 08:34:09;;;;;;;4.65;3.65;;;;;;;18.18;15.90;100142.13;5112243;28;20101;-70
2022/03/09 08:36:35;;;;;;;3.28;2.28;;;;;;;18.18;15.62;100139.44;5112052;28;20031;-69
2022/03/09 08:39:01;;;;;;;5.75;2.90;;;;;;;18.17;15.97;100146.63;5112588;28;20044;-69
2022/03/09 08:41:28;;;;;;;5.20;2.55;;;;;;;18.19;15.77;100146.50;5115511;28;20032;-69
2022/03/09 08:43:54;;;;;;;4.78;3.15;;;;;;;18.18;15.78;100152.84;5115782;28;20100;-70
2022/03/09 08:46:20;;;;;;;5.15;2.55;;;;;;;18.18;15.82;100151.00;5115670;27;20432;-68
2022/03/09 08:48:46;;;;;;;5.50;3.15;;;;;;;18.17;15.77;100153.84;5115675;27;20082;-70
2022/03/09 08:51:12;;;;;;;4.03;2.40;;;;;;;18.14;15.40;100165.72;5115817;28;20039;-69
2022/03/09 08:53:38;;;;;;;5.43;3.08;;;;;;;18.10;15.59;100150.94;5115807;28;20083;-69
2022/03/09 08:56:07;;;;;;;4.68;2.72;;;;;;;18.10;15.58;100159.81;5115154;28;20036;-69
2022/03/09 08:58:34;;;;;;;4.90;2.38;;;;;;;18.11;15.60;100160.66;5116365;28;20043;-69
2022/03/09 09:00:59;;;;;;;3.95;2.55;;;;;;;18.13;15.64;100158.66;5115860;28;20144;-70
2022/03/09 09:03:26;;;;;;;4.00;2.53;;;;;;;18.15;15.67;100164.72;5115680;28;20039;-70
2022/03/09 09:05:52;;;;;;;5.82;3.47;;;;;;;18.15;15.51;100167.41;5115796;28;20038;-69
2022/03/09 09:08:18;;;;;;;4.90;2.80;;;;;;;18.14;15.34;100168.41;5115058;28;20027;-69
2022/03/09 09:10:44;;;;;;;8.23;2.70;;;;;;;18.12;15.77;100167.69;5115040;28;20511;-69
2022/03/09 09:13:10;;;;;;;4.45;2.40;;;;;;;18.12;15.78;100170.38;5115522;28;20043;-70
2022/03/09 09:15:37;;;;;;;3.83;2.50;;;;;;;18.12;15.51;100173.88;5114992;27;20044;-69
2022/03/09 09:18:04;;;;;;;4.03;2.30;;;;;;;18.12;15.64;100176.56;5114496;28;20060;-70
2022/03/09 09:20:30;;;;;;;4.50;2.83;;;;;;;18.13;15.74;100172.06;5115555;28;20037;-69
2022/03/09 09:22:56;;;;;;;3.45;2.33;;;;;;;18.13;16.01;100177.41;5114633;28;20042;-70
2022/03/09 09:25:23;;;;;;;4.10;2.17;;;;;;;18.13;15.94;100174.75;5114979;28;20023;-69
2022/03/09 09:27:50;;;;;;;3.30;2.00;;;;;;;18.12;16.10;100179.25;5115042;28;20082;-69
2022/03/09 09:30:16;;;;;;;4.07;3.08;;;;;;;18.11;15.75;100185.59;5115111;28;20035;-70
2022/03/09 09:32:42;;;;;;;3.92;2.38;;;;;;;18.13;15.65;100177.41;5114373;28;20136;-70
2022/03/09 09:35:07;;;;;;;3.13;2.17;;;;;;;18.13;15.55;100185.44;5115162;28;20031;-69
2022/03/09 09:37:33;;;;;;;3.67;2.60;;;;;;;18.15;15.57;100181.63;5114226;28;20513;-69
2022/03/09 09:39:58;;;;;;;3.90;2.45;;;;;;;18.15;15.39;100191.50;5097279;28;20414;-69
2022/03/09 09:42:31;;;;;;;3.78;2.58;;;;;;;18.14;14.99;100190.66;5094127;28;20074;-67
2022/03/09 09:45:00;;;;;;;3.58;2.10;;;;;;;18.13;15.52;100186.28;5094504;28;20110;-68
2022/03/09 09:47:30;;;;;;;3.90;2.08;;;;;;;18.12;15.13;100197.16;5102880;28;20035;-67
2022/03/09 09:49:56;;;;;;;3.17;2.03;;;;;;;18.09;15.69;100190.25;5114385;28;20040;-68
2022/03/09 09:52:25;;;;;;;2.90;2.00;;;;;;;18.09;15.54;100192.09;5114701;28;20039;-69
2022/03/09 09:54:56;;;;;;;3.30;2.20;;;;;;;18.08;15.78;100187.75;5114648;28;20118;-69
2022/03/09 09:57:24;;;;;;;3.25;1.92;;;;;;;18.08;15.55;100193.09;5114109;28;20058;-69
2022/03/09 09:59:50;;;;;;;3.00;2.05;;;;;;;18.09;15.90;100187.56;5114445;28;20397;-71
2022/03/09 10:02:16;;;;;;;2.85;2.10;;;;;;;18.08;15.67;100187.75;5111835;28;20027;-71
2022/03/09 10:04:41;;;;;;;4.38;2.10;;;;;;;18.11;16.27;100182.91;5113893;28;20073;-69
2022/03/09 10:07:08;;;;;;;5.60;2.45;;;;;;;18.13;15.80;100186.28;5113684;28;20062;-69
2022/03/09 10:09:39;;;;;;;2.67;2.05;;;;;;;18.09;15.71;100181.41;5113991;28;20371;-68
2022/03/09 10:12:06;;;;;;;3.28;2.22;;;;;;;18.09;15.64;100195.59;5095687;28;20542;-71
2022/03/09 10:14:52;;;;;;;3.17;1.88;;;;;;;17.98;16.49;100204.75;5103711;27;20031;-69
2022/03/09 10:17:22;;;;;;;2.28;1.73;;;;;;;17.91;16.54;100202.78;5104761;28;20460;-70
2022/03/09 10:20:09;;;;;;;3.63;2.33;;;;;;;17.86;16.43;100205.94;5114509;28;20039;-69
2022/03/09 10:22:46;;;;;;;4.88;2.30;;;;;;;17.81;16.57;100208.22;5112334;27;20397;-72
2022/03/09 10:25:11;;;;;;;5.03;1.90;;;;;;;17.74;16.39;100210.66;5113054;27;20062;-71
2022/03/09 10:27:44;;;;;;;3.83;2.05;;;;;;;17.70;16.40;100211.94;5113173;28;20061;-70
2022/03/09 10:30:29;;;;;;;3.67;2.08;;;;;;;17.67;16.93;100207.75;5113797;28;20054;-70
2022/03/09 10:32:59;;;;;;;6.00;2.55;;;;;;;17.64;16.88;100210.72;5113717;28;20123;-70
2022/03/09 10:35:27;;;;;;;3.30;2.00;;;;;;;17.65;16.67;100204.38;5113681;27;20499;-70
2022/03/09 10:37:53;;;;;;;4.07;2.35;;;;;;;17.66;16.71;100214.09;5112730;28;20035;-71
2022/03/09 10:40:20;;;;;;;6.45;2.53;;;;;;;17.63;16.61;100210.88;5113201;27;20032;-70
2022/03/09 10:42:47;;;;;;;3.05;2.10;;;;;;;17.59;16.86;100222.84;5112843;28;20402;-71
2022/03/09 10:45:17;;;;;;;3.85;2.17;;;;;;;17.62;16.81;100220.72;5113273;28;20110;-71
2022/03/09 10:47:48;;;;;;;3.58;2.20;;;;;;;17.58;16.83;100222.00;5112825;28;20433;-72
2022/03/09 10:50:13;;;;;;;;;;;;;;;17.45;17.45;100224.19;5113229;28;20028;-72
2022/03/09 10:52:53;;;;;;;3.90;2.30;;;;;;;17.45;16.98;100213.50;5113133;27;19977;-70
2022/03/09 10:55:32;;;;;;;3.85;2.50;;;;;;;17.50;17.11;100212.03;5113726;28;20495;-71
2022/03/09 10:58:15;;;;;;;3.30;2.15;;;;;;;17.49;16.85;100215.75;5113011;28;20032;-71
2022/03/09 11:00:45;;;;;;;3.25;2.30;;;;;;;17.47;16.97;100212.38;5102605;28;20161;-71
2022/03/09 11:03:22;;;;;;;5.72;3.30;;;;;;;17.51;17.22;100220.94;5112000;28;20034;-69
2022/03/09 11:05:59;;;;;;;5.47;2.50;;;;;;;17.54;16.78;100223.31;5112425;28;20054;-69
2022/03/09 11:08:27;;;;;;;4.85;3.00;;;;;;;17.60;16.96;100224.53;5108777;27;20036;-70
2022/03/09 11:10:55;;;;;;;3.88;2.55;;;;;;;17.63;17.02;100226.94;5113450;27;20028;-73
2022/03/09 11:13:22;;;;;;;3.83;2.47;;;;;;;17.62;16.80;100220.72;5112606;28;20031;-73
2022/03/09 11:15:47;;;;;;;6.05;2.50;;;;;;;17.61;17.28;100215.53;5112202;28;20088;-73
2022/03/09 11:18:18;;;;;;;3.75;2.63;;;;;;;17.63;17.59;100219.72;5112632;28;20135;-71
2022/03/09 11:20:44;;;;;;;3.55;1.48;;;;;;;17.64;17.50;100226.75;5110360;28;20047;-69
2022/03/09 11:23:12;;;;;;;5.82;2.60;;;;;;;17.63;17.11;100222.41;5111493;28;20080;-70
2022/03/09 11:25:47;;;;;;;3.58;2.08;;;;;;;17.64;17.17;100218.75;5113740;28;20038;-70